• Join FlightAware (Why Join?)
  • Login
  • US Flag 
02:03AM EDT


 

Airport Tracker/Info


-or-


 

Live Flight TrackerFlight Track Log ✈ AAL1593 ✈ 03-Oct-2013 ✈ KDFW - KCLT

Flight Track Log - Related Links

Times and Time Zones

All times are in EDT time to prevent confusion due to time zone crossing. See the AAL1593 flight status page for this flight to view local times or setup timezone preferences in your user account.

Time Position Orientation Groundspeed Altitude Reporting Facility
EDT Latitude Longitude Course Direction KTS MPH feet Rate Location/Type
04:43PM 32.8860 -97.0300 180° South 149 171 1,400  Level FlightAware
04:44PM 32.8690 -97.0300 180° South 155 178 2,200 1,680 Climbing FlightAware
04:44PM 32.8460 -97.0300 180° South 187 215 2,800 1,320 Climbing FlightAware
04:45PM 32.8280 -97.0300 180° South 212 244 3,300 1,740 Climbing FlightAware
04:45PM 32.8020 -97.0300 180° South 238 274 4,100 2,400 Climbing FlightAware
04:45PM 32.7790 -97.0300 180° South 242 278 5,100 3,000 Climbing FlightAware
04:46PM 32.7620 -97.0300 180° South 244 281 5,900 2,760 Climbing FlightAware
04:46PM 32.7220 -97.0250 174° South 260 299 7,400 2,700 Climbing FlightAware
04:46PM 32.7140 -97.0200 152° Southeast 265 305 7,800 2,460 Climbing FlightAware
04:46PM 32.7100 -97.0160 140° Southeast 267 307 7,900 1,980 Climbing FlightAware
04:47PM 32.7040 -97.0050 123° Southeast 275 316 8,200 2,220 Climbing FlightAware
04:47PM 32.7010 -96.9940 108° East 285 328 8,500 2,280 Climbing FlightAware
04:47PM 32.6960 -96.9750 107° East 289 333 9,000 2,400 Climbing FlightAware
04:47PM 32.6900 -96.9440 103° East 292 336 9,800 2,220 Climbing FlightAware
04:47PM 32.6890 -96.9310 95° East 292 336 10,000 420 Climbing FlightAware
04:48PM 32.6930 -96.8810 85° East 293 337 10,100 60 Climbing FlightAware
04:48PM 32.6960 -96.8220 87° East 296 341 10,100  Level FlightAware
04:49PM 32.7050 -96.7830 75° East 319 367 10,100 180 Level FlightAware
04:49PM 32.7250 -96.7270 67° East 343 395 10,300 1,260 Climbing FlightAware
04:50PM 32.7490 -96.6600 67° East 361 415 11,600 2,220 Climbing FlightAware
04:51PM 32.7720 -96.5950 67° East 371 427 13,000 1,920 Climbing FlightAware
04:51PM 32.7950 -96.5320 67° East 391 450 13,800 1,980 Climbing FlightAware
04:52PM 32.8210 -96.4590 67° East 393 452 15,300 2,100 Climbing FlightAware
04:52PM 32.8430 -96.3960 67° East 406 467 16,200 1,860 Climbing FlightAware
04:53PM 32.8640 -96.3270 70° East 411 473 17,300 2,040 Climbing FlightAware
04:53PM 32.8660 -96.3000 85° East 413 475 17,700 1,860 Climbing FlightAware
04:54PM 32.8680 -96.2170 88° East 420 483 18,800 1,380 Climbing FlightAware
04:54PM 32.8690 -96.1400 89° East 436 502 19,300 1,080 Climbing FlightAware
04:55PM 32.8700 -96.0740 89° East 446 513 19,900 1,380 Climbing FlightAware
04:55PM 32.8720 -95.9860 88° East 452 520 20,800 1,320 Climbing FlightAware
04:56PM 32.8730 -95.8910 89° East 459 528 21,600 1,320 Climbing FlightAware
04:56PM 32.8748 -95.8061 89° East 464 534 22,400 1,440 Climbing FlightAware ADS-B
04:57PM 32.8763 -95.7120 89° East 469 540 23,300 1,380 Climbing FlightAware ADS-B
04:58PM 32.8780 -95.6210 89° East 471 542 24,100 1,320 Climbing FlightAware
04:58PM 32.8790 -95.5150 89° East 476 548 25,000 1,260 Climbing FlightAware
04:59PM 32.8800 -95.4330 89° East 478 550 25,700 1,140 Climbing FlightAware
05:00PM 32.8880 -95.3220 85° East 479 551 26,400 1,020 Climbing FlightAware
05:00PM 32.8951 -95.2754 80° East 487 560 26,700 840 Climbing FlightAware ADS-B
05:00PM 32.9078 -95.1923 80° East 496 571 27,100 1,020 Climbing FlightAware ADS-B
05:01PM 32.9336 -95.0217 80° East 499 574 28,300 1,320 Climbing FlightAware ADS-B
05:02PM 32.9520 -94.9010 80° East 501 577 29,500 1,560 Climbing FlightAware
05:03PM 32.9670 -94.8010 80° East 500 575 30,500 1,740 Climbing FlightAware
05:03PM 32.9830 -94.6940 80° East 494 568 31,800 1,680 Climbing FlightAware
05:04PM 33.0010 -94.5720 80° East 496 571 32,900 1,560 Climbing FlightAware
05:05PM 33.0150 -94.4730 80° East 493 567 34,000 1,860 Climbing FlightAware
05:06PM 33.0330 -94.3520 80° East 485 558 35,500 1,560 Climbing FlightAware
05:06PM 33.0450 -94.2680 80° East 489 563 36,000 1,200 Climbing FlightAware
05:07PM 33.0560 -94.1934 80° East 488 562 36,700 1,320 Climbing FlightAware ADS-B
05:07PM 33.0677 -94.1121 80° East 487 560 37,300 1,200 Climbing FlightAware ADS-B
05:08PM 33.0817 -94.0145 80° East 485 558 38,100 780 Climbing FlightAware ADS-B
05:09PM 33.1020 -93.8760 80° East 483 556 38,600 600 Climbing FlightAware
05:09PM 33.1138 -93.7870 81° East 484 557 39,000 300 Climbing FlightAware ADS-B
05:10PM 33.1310 -93.6670 80° East 483 556 39,000  Level FlightAware
05:10PM 33.1358 -93.6305 81° East 485 558 39,000  Level FlightAware ADS-B
05:11PM 33.1590 -93.4670 80° East 486 559 39,000  Level FlightAware
05:12PM 33.1690 -93.3960 80° East 486 559 39,000  Level FlightAware
05:12PM 33.1810 -93.3130 80° East 486 559 39,000  Level FlightAware
05:13PM 33.1980 -93.1760 82° East 488 562 39,000  Level FlightAware
05:14PM 33.2110 -93.0850 80° East 488 562 39,000  Level FlightAware
05:14PM 33.2240 -92.9890 81° East 488 562 39,000  Level FlightAware
05:15PM 33.2360 -92.9080 80° East 488 562 39,000  Level FlightAware
05:15PM 33.2480 -92.8260 80° East 488 562 39,000  Level FlightAware
05:16PM 33.2600 -92.7450 80° East 488 562 39,000  Level FlightAware
05:17PM 33.2730 -92.6610 79° East 488 562 39,000  Level FlightAware
05:17PM 33.2850 -92.5800 80° East 488 562 39,000  Level FlightAware
05:18PM 33.2970 -92.4990 80° East 488 562 39,000  Level FlightAware
05:18PM 33.3090 -92.4170 80° East 488 562 39,000  Level FlightAware
05:19PM 33.3210 -92.3360 80° East 488 562 39,000  Level FlightAware
05:20PM 33.3330 -92.2520 80° East 488 562 39,000  Level FlightAware
05:20PM 33.3450 -92.1710 80° East 488 562 39,000  Level FlightAware
05:21PM 33.3570 -92.0890 80° East 488 562 39,000  Level FlightAware
05:21PM 33.3690 -92.0080 80° East 488 562 39,000  Level FlightAware
05:22PM 33.3810 -91.9260 80° East 488 562 39,000  Level FlightAware
05:23PM 33.3930 -91.8450 80° East 488 562 39,000  Level FlightAware
05:23PM 33.4050 -91.7630 80° East 488 562 39,000  Level FlightAware
05:25PM 33.3778 -91.3425 80° East 482 555 39,000  Level Memphis Center
05:26PM 33.3936 -91.1808 83° East 482 555 39,000  Level Memphis Center
05:27PM 33.4050 -91.0217 85° East 482 555 39,000  Level Memphis Center
05:28PM 33.4183 -90.8625 84° East 482 555 39,000  Level Memphis Center
05:29PM 33.4314 -90.7131 84° East 482 555 39,000  Level Memphis Center
05:30PM 33.4419 -90.5514 85° East 482 555 39,000  Level Memphis Center
05:31PM 33.4547 -90.3922 84° East 482 555 39,000  Level Memphis Center
05:32PM 33.4650 -90.2328 86° East 482 555 39,000  Level Memphis Center
05:37PM 33.4800 -89.2550 86° East 484 557 39,000  Level FlightAware
05:38PM 33.4810 -89.1650 89° East 484 557 39,000  Level FlightAware
05:39PM 33.4820 -89.0740 89° East 486 559 39,000  Level FlightAware
05:39PM 33.4830 -88.9810 89° East 487 560 39,000  Level FlightAware
05:40PM 33.4840 -88.8500 89° East 487 560 39,000  Level FlightAware
05:41PM 33.4840 -88.7580 90° East 486 559 39,000  Level FlightAware
05:41PM 33.4850 -88.6620 89° East 485 558 39,000  Level FlightAware
05:42PM 33.4850 -88.5690 90° East 484 557 39,000  Level FlightAware
05:42PM 33.4910 -88.4710 86° East 482 555 39,000  Level FlightAware
05:43PM 33.5020 -88.3790 82° East 481 554 39,000  Level FlightAware
05:43PM 33.5130 -88.2890 82° East 481 554 39,000  Level FlightAware
05:44PM 33.5240 -88.1920 82° East 482 555 39,000  Level FlightAware
05:45PM 33.5350 -88.1020 82° East 482 555 39,000  Level FlightAware
05:45PM 33.5450 -88.0200 82° East 484 557 39,000  Level FlightAware
05:46PM 33.5590 -87.9000 82° East 484 557 39,000  Level FlightAware
05:46PM 33.5690 -87.8090 82° East 486 559 39,000  Level FlightAware
05:47PM 33.5800 -87.7130 82° East 487 560 39,000  Level FlightAware
05:48PM 33.5900 -87.6230 82° East 487 560 39,000  Level FlightAware
05:48PM 33.6000 -87.5400 82° East 487 560 39,000  Level FlightAware
05:49PM 33.6100 -87.4580 82° East 487 560 39,000  Level FlightAware
05:49PM 33.6190 -87.3740 83° East 487 560 39,000  Level FlightAware
05:50PM 33.6218 -87.2361 89° East 483 556 39,000  Level FlightAware ADS-B
05:51PM 33.6380 -87.2150 47° Northeast 487 560 39,000  Level FlightAware
05:51PM 33.6480 -87.1300 82° East 487 560 39,000  Level FlightAware
05:52PM 33.6250 -86.9620 99° East 482 555 39,000  Level FlightAware
05:52PM 33.6260 -86.8740 89° East 481 554 39,000  Level FlightAware
05:53PM 33.6270 -86.8113 89° East 480 552 39,000  Level FlightAware ADS-B
05:53PM 33.6279 -86.7256 89° East 480 552 39,000  Level FlightAware ADS-B
05:54PM 33.6291 -86.6016 89° East 481 554 39,000  Level FlightAware ADS-B
05:55PM 33.6297 -86.5166 89° East 482 555 39,000  Level FlightAware ADS-B
05:55PM 33.6304 -86.4180 89° East 484 557 39,000  Level FlightAware ADS-B
05:56PM 33.6313 -86.2882 89° East 484 557 39,000  Level FlightAware ADS-B
05:57PM 33.6319 -86.1943 90° East 487 560 39,000  Level FlightAware ADS-B
05:57PM 33.6322 -86.1146 90° East 488 562 39,000  Level FlightAware ADS-B
05:58PM 33.6325 -86.0290 90° East 489 563 39,000  Level FlightAware ADS-B
05:58PM 33.6329 -85.9455 90° East 490 564 39,000  Level FlightAware ADS-B
05:59PM 33.6331 -85.8622 90° East 491 565 39,000  Level FlightAware ADS-B
05:59PM 33.6333 -85.7716 90° East 491 565 39,000  Level FlightAware ADS-B
06:00PM 33.6334 -85.6788 90° East 491 565 39,000  Level FlightAware ADS-B
06:00PM 33.6335 -85.5727 90° East 490 564 39,000  Level FlightAware ADS-B
06:01PM 33.6336 -85.4822 90° East 490 564 39,000  Level FlightAware ADS-B
06:01PM 33.6334 -85.3994 90° East 490 564 39,000  Level FlightAware ADS-B
06:02PM 33.6330 -85.3100 90° East 489 563 39,000  Level FlightAware
06:02PM 33.6332 -85.2590 90° East 489 563 39,000  Level FlightAware ADS-B
06:03PM 33.6329 -85.1744 90° East 489 563 39,000  Level FlightAware ADS-B
06:03PM 33.6326 -85.0853 90° East 489 563 39,000  Level FlightAware ADS-B
06:04PM 33.6323 -85.0051 90° East 488 562 39,000  Level FlightAware ADS-B
06:04PM 33.6319 -84.9131 90° East 487 560 39,000  Level FlightAware ADS-B
06:05PM 33.6310 -84.8260 91° East 486 559 39,000  Level FlightAware
06:05PM 33.6314 -84.8043 89° East 485 558 39,000 -660 Level FlightAware ADS-B
06:06PM 33.6309 -84.7230 90° East 485 558 38,600 -900 Descending FlightAware ADS-B
06:06PM 33.6302 -84.6350 91° East 486 559 38,100 -960 Descending FlightAware ADS-B
06:07PM 33.6299 -84.5538 90° East 491 565 37,600 -1,020 Descending FlightAware ADS-B
06:07PM 33.6328 -84.4902 87° East 494 568 37,200 -1,020 Descending FlightAware ADS-B
06:08PM 33.6425 -84.4093 82° East 498 573 36,700 -900 Descending FlightAware ADS-B
06:08PM 33.6481 -84.3788 78° East 499 574 36,600 -960 Descending FlightAware ADS-B
06:08PM 33.6568 -84.3396 75° East 500 575 36,300 -1,020 Descending FlightAware ADS-B
06:09PM 33.6818 -84.2489 72° East 499 574 35,800 -1,020 Descending FlightAware ADS-B
06:09PM 33.7046 -84.1679 71° East 502 578 35,200 -780 Descending FlightAware ADS-B
06:10PM 33.7275 -84.0864 71° East 502 578 35,000 -240 Descending FlightAware ADS-B
06:10PM 33.7498 -84.0064 71° East 503 579 35,000  Level FlightAware ADS-B
06:11PM 33.7723 -83.9258 71° East 503 579 35,000  Level FlightAware ADS-B
06:12PM 33.8179 -83.7629 71° East 504 580 35,000  Level FlightAware ADS-B
06:12PM 33.8422 -83.6751 72° East 503 579 35,000 -360 Level FlightAware ADS-B
06:13PM 33.8702 -83.5732 72° East 500 575 34,600 -720 Descending FlightAware ADS-B
06:13PM 33.8910 -83.4980 72° East 495 570 34,200 -900 Descending FlightAware
06:14PM 33.9102 -83.4279 72° East 495 570 33,800 -1,020 Descending FlightAware ADS-B
06:15PM 33.9500 -83.3100 68° East 497 572 33,000 -1,140 Descending FlightAware
06:15PM 33.9639 -83.2735 65° Northeast 497 572 32,700 -960 Descending FlightAware ADS-B
06:15PM 33.9969 -83.1840 66° East 497 572 32,200 -960 Descending FlightAware ADS-B
06:16PM 34.0305 -83.0928 66° East 496 571 31,600 -1,080 Descending FlightAware ADS-B
06:17PM 34.0646 -83.0003 66° East 494 568 30,900 -1,080 Descending FlightAware ADS-B
06:17PM 34.0993 -82.9056 66° East 487 560 30,300 -960 Descending FlightAware ADS-B
06:18PM 34.1301 -82.8213 66° East 484 557 29,800 -1,020 Descending FlightAware ADS-B
06:19PM 34.1750 -82.6980 66° East 478 550 28,900 -1,080 Descending FlightAware
06:19PM 34.2060 -82.6120 66° East 479 551 28,300 -1,680 Descending FlightAware
06:20PM 34.2390 -82.5210 66° East 473 544 26,900 -2,340 Descending FlightAware
06:20PM 34.2670 -82.4440 66° East 468 539 25,600 -2,340 Descending FlightAware
06:21PM 34.2970 -82.3600 67° East 460 529 24,300 -1,380 Descending FlightAware
06:22PM 34.3270 -82.2760 67° East 451 519 24,000 -300 Descending FlightAware
06:22PM 34.3580 -82.1910 66° East 450 518 24,000 -360 Level FlightAware
06:22PM 34.3750 -82.1480 64° Northeast 450 518 23,700 -3,000 Descending FlightAware
06:23PM 34.4190 -82.0730 55° Northeast 446 513 21,200 -3,840 Descending FlightAware
06:24PM 34.4570 -82.0080 55° Northeast 435 501 19,300 -2,700 Descending FlightAware
06:24PM 34.4980 -81.9400 54° Northeast 421 484 18,200 -1,800 Descending FlightAware
06:25PM 34.5390 -81.8710 54° Northeast 411 473 17,200 -1,740 Descending FlightAware
06:25PM 34.5750 -81.8100 54° Northeast 405 466 16,200 -1,860 Descending FlightAware
06:26PM 34.6120 -81.7480 54° Northeast 399 459 15,200 -1,800 Descending FlightAware
06:27PM 34.6510 -81.6820 54° Northeast 394 453 14,100 -900 Descending FlightAware
06:27PM 34.6870 -81.6220 54° Northeast 394 453 14,100 -1,800 Level FlightAware
06:28PM 34.7230 -81.5600 55° Northeast 385 443 12,100 -1,740 Descending FlightAware
06:29PM 34.7710 -81.4950 48° Northeast 373 429 11,900 -240 Descending FlightAware
06:29PM 34.8230 -81.4280 47° Northeast 366 421 11,800 -120 Descending FlightAware
06:30PM 34.8570 -81.3850 46° Northeast 367 422 11,800  Level FlightAware
06:30PM 34.8930 -81.3390 46° Northeast 367 422 11,800  Level FlightAware
06:31PM 34.9290 -81.2940 46° Northeast 367 422 11,800 -840 Level FlightAware
06:35PM 35.1830 -81.0660 36° Northeast 8,700 -960 Descending FlightAware
06:35PM 35.2100 -81.0680 357° North 243 280 8,000 -1,980 Descending FlightAware
06:36PM 35.2650 -81.0730 356° North 241 277 6,500 -1,860 Descending FlightAware
06:36PM 35.2850 -81.0750 355° North 240 276 6,000 -1,020 Descending FlightAware
06:36PM 35.3100 -81.0770 356° North 240 276 5,800 -300 Descending FlightAware
06:37PM 35.3400 -81.0800 355° North 239 275 5,800 120 Level FlightAware
06:37PM 35.3560 -81.0810 357° North 221 254 5,900 -480 Climbing FlightAware
06:38PM 35.3800 -81.0830 356° North 211 243 5,500 -1,260 Descending FlightAware
06:38PM 35.3950 -81.0830 360° North 211 243 5,100 -1,260 Descending FlightAware
06:38PM 35.4080 -81.0740 29° Northeast 197 227 4,800 -1,500 Descending FlightAware
06:38PM 35.4130 -81.0600 66° East 193 222 4,400 -2,040 Descending FlightAware
06:38PM 35.4140 -81.0530 80° East 188 216 4,200 -1,020 Descending FlightAware
06:39PM 35.4080 -81.0250 105° East 183 211 3,800 -540 Descending FlightAware
06:39PM 35.3970 -81.0130 138° Southeast 184 212 3,800  Level FlightAware
06:39PM 35.3850 -81.0020 143° Southeast 183 211 3,800 -360 Level FlightAware
06:40PM 35.3740 -80.9900 138° Southeast 177 204 3,600 -1,080 Descending FlightAware
06:40PM 35.3580 -80.9800 153° Southeast 169 194 3,100 -1,260 Descending FlightAware
06:40PM 35.3540 -80.9790 168° South 165 190 3,000 -1,020 Descending FlightAware
06:41PM 35.3410 -80.9770 173° South 166 191 2,700 -600 Descending FlightAware
06:41PM 35.3250 -80.9760 177° South 158 182 2,600 -540 Descending FlightAware
06:41PM 35.3050 -80.9750 178° South 143 165 2,300 -960 Descending FlightAware
06:42PM 35.2960 -80.9740 175° South 144 166 1,900 -1,080 Descending FlightAware
06:42PM 35.2800 -80.9720 174° South 140 161 1,600 -720 Descending FlightAware
06:42PM 35.2630 -80.9710 177° South 136 157 1,300 -660 Descending FlightAware
06:43PM 35.2520 -80.9700 176° South 137 158 1,100 -420 Descending FlightAware
06:43PM 35.2280 -80.9680 176° South 137 158 900 -300 Descending FlightAware